createdAt,value
2022-12-27T00:02:23.311Z,2.40
2022-12-27T00:04:50.319Z,2.28
2022-12-27T00:07:17.109Z,2.28
2022-12-27T00:09:43.658Z,2.50
2022-12-27T00:12:10.126Z,2.40
2022-12-27T00:14:36.623Z,2.42
2022-12-27T00:17:03.143Z,2.88
2022-12-27T00:19:29.662Z,2.28
2022-12-27T00:21:56.242Z,2.60
2022-12-27T00:24:22.821Z,2.55
2022-12-27T00:26:49.458Z,2.35
2022-12-27T00:29:15.992Z,2.38
2022-12-27T00:31:42.557Z,2.40
2022-12-27T00:34:09.271Z,2.72
2022-12-27T00:36:35.788Z,2.72
2022-12-27T00:39:03.107Z,2.90
2022-12-27T00:41:29.679Z,2.53
2022-12-27T00:43:56.277Z,2.60
2022-12-27T00:46:22.916Z,2.47
2022-12-27T00:48:49.503Z,2.50
2022-12-27T00:51:21.035Z,2.60
2022-12-27T00:53:48.148Z,2.50
2022-12-27T00:56:17.967Z,2.92
2022-12-27T00:58:45.096Z,2.60
2022-12-27T01:01:15.145Z,2.55
2022-12-27T01:03:41.762Z,2.70
2022-12-27T01:06:11.190Z,2.80
2022-12-27T01:08:38.288Z,3.20
2022-12-27T01:11:05.565Z,2.60
2022-12-27T01:13:32.929Z,2.67
2022-12-27T01:15:59.500Z,2.80
2022-12-27T01:18:26.031Z,2.90
2022-12-27T01:20:52.643Z,2.90
2022-12-27T01:23:19.459Z,3.28
2022-12-27T01:25:45.962Z,3.20
2022-12-27T01:28:12.431Z,2.80
2022-12-27T01:30:38.935Z,2.67
2022-12-27T01:33:05.411Z,2.70
2022-12-27T01:35:31.993Z,3.20
2022-12-27T01:37:58.482Z,2.80
2022-12-27T01:40:25.308Z,3.50
2022-12-27T01:42:55.676Z,2.80
2022-12-27T01:45:35.027Z,3.35
2022-12-27T01:48:22.566Z,3.00
2022-12-27T01:50:56.679Z,3.55
2022-12-27T01:53:30.901Z,3.28
2022-12-27T01:56:01.341Z,3.28
2022-12-27T01:58:42.645Z,3.10
2022-12-27T02:01:19.378Z,3.13
2022-12-27T02:03:50.415Z,3.33
2022-12-27T02:06:19.917Z,3.05
2022-12-27T02:08:49.370Z,2.80
2022-12-27T02:11:17.901Z,2.83
2022-12-27T02:13:46.339Z,3.10
2022-12-27T02:16:18.261Z,2.83
2022-12-27T02:18:46.267Z,2.55
2022-12-27T02:21:15.458Z,2.70
2022-12-27T02:24:07.524Z,2.80
2022-12-27T02:26:55.604Z,2.60
2022-12-27T02:29:37.914Z,2.40
2022-12-27T02:32:29.591Z,2.30
2022-12-27T02:35:39.169Z,2.13
2022-12-27T02:38:15.346Z,2.50
2022-12-27T02:43:48.767Z,2.45
2022-12-27T02:46:43.007Z,2.00
2022-12-27T02:49:49.845Z,2.38
2022-12-27T02:52:53.964Z,2.20
2022-12-27T02:56:16.691Z,2.40
2022-12-27T02:59:06.001Z,2.60
2022-12-27T03:02:22.024Z,2.40
2022-12-27T03:04:57.505Z,2.30
2022-12-27T03:07:30.868Z,2.75
2022-12-27T03:10:50.136Z,3.10
2022-12-27T03:13:45.537Z,2.40
2022-12-27T03:16:21.851Z,2.80
2022-12-27T03:19:07.063Z,2.65
2022-12-27T03:21:56.615Z,2.45
2022-12-27T03:24:46.784Z,2.95
2022-12-27T03:27:27.628Z,2.58
2022-12-27T03:30:15.287Z,2.70
2022-12-27T03:33:08.938Z,3.03
2022-12-27T03:35:42.881Z,3.10
2022-12-27T03:38:13.030Z,3.03
2022-12-27T03:41:04.873Z,2.72
2022-12-27T03:43:32.138Z,2.75
2022-12-27T03:46:23.357Z,3.05
2022-12-27T03:49:17.829Z,3.10
2022-12-27T03:51:55.609Z,3.50
2022-12-27T03:54:27.183Z,3.20
2022-12-27T03:57:00.414Z,3.13
2022-12-27T03:59:28.115Z,3.30
2022-12-27T04:01:55.121Z,3.10
2022-12-27T04:04:21.938Z,3.10
2022-12-27T04:06:48.534Z,2.92
2022-12-27T04:09:33.645Z,3.22
2022-12-27T04:12:18.567Z,3.00
2022-12-27T04:15:03.738Z,3.13
2022-12-27T04:17:48.649Z,3.42
2022-12-27T04:20:33.768Z,3.00
2022-12-27T04:23:18.728Z,2.90
2022-12-27T04:26:04.132Z,3.00
2022-12-27T04:28:49.169Z,2.90
2022-12-27T04:31:34.419Z,2.65
2022-12-27T04:34:19.502Z,3.65
2022-12-27T04:36:46.606Z,2.88
2022-12-27T04:39:13.641Z,3.10
2022-12-27T04:41:59.074Z,2.50
2022-12-27T04:44:44.229Z,3.13
2022-12-27T04:47:35.564Z,2.72
2022-12-27T04:50:21.848Z,2.70
2022-12-27T04:53:06.887Z,3.13
2022-12-27T04:55:33.458Z,3.30
2022-12-27T04:58:00.003Z,2.72
2022-12-27T05:00:48.387Z,2.90
2022-12-27T05:03:21.322Z,2.33
2022-12-27T05:05:50.025Z,2.58
2022-12-27T05:08:36.629Z,2.50
2022-12-27T05:11:21.693Z,2.85
2022-12-27T05:14:00.280Z,2.42
2022-12-27T05:16:28.806Z,3.13
2022-12-27T05:18:55.349Z,2.78
2022-12-27T05:21:22.352Z,2.65
2022-12-27T05:24:07.493Z,2.28
2022-12-27T05:26:35.330Z,2.60
2022-12-27T05:29:02.146Z,2.80
2022-12-27T05:31:29.689Z,3.03
2022-12-27T05:33:56.299Z,2.80
2022-12-27T05:36:23.610Z,2.40
2022-12-27T05:38:50.831Z,2.55
2022-12-27T05:41:17.884Z,2.85
2022-12-27T05:43:44.448Z,2.63
2022-12-27T05:46:13.762Z,2.70
2022-12-27T05:48:40.566Z,2.60
2022-12-27T05:51:10.193Z,2.88
2022-12-27T05:53:36.950Z,3.10
2022-12-27T05:56:04.369Z,2.75
2022-12-27T05:58:31.009Z,2.80
2022-12-27T06:00:57.969Z,2.95
2022-12-27T06:03:24.648Z,2.97
2022-12-27T06:05:51.283Z,3.33
2022-12-27T06:08:17.815Z,3.67
2022-12-27T06:10:44.357Z,3.40
2022-12-27T06:13:10.918Z,3.10
2022-12-27T06:15:37.486Z,3.60
2022-12-27T06:18:04.289Z,3.00
2022-12-27T06:20:30.796Z,2.75
2022-12-27T06:23:00.141Z,3.03
2022-12-27T06:25:26.703Z,3.05
2022-12-27T06:27:53.243Z,2.63
2022-12-27T06:30:19.797Z,3.05
2022-12-27T06:32:46.498Z,3.10
2022-12-27T06:35:13.156Z,2.78
2022-12-27T06:37:39.751Z,2.72
2022-12-27T06:40:06.995Z,2.78
2022-12-27T06:42:33.477Z,3.00
2022-12-27T06:44:59.996Z,2.70
2022-12-27T06:47:26.495Z,2.75
2022-12-27T06:49:53.041Z,2.75
2022-12-27T06:52:19.720Z,2.60
2022-12-27T06:54:46.368Z,3.72
2022-12-27T06:57:12.855Z,2.92
2022-12-27T06:59:39.357Z,2.63
2022-12-27T07:02:06.104Z,2.42
2022-12-27T07:04:32.793Z,3.63
2022-12-27T07:06:59.300Z,3.38
2022-12-27T07:09:25.841Z,3.03
2022-12-27T07:11:54.118Z,3.20
2022-12-27T07:14:20.667Z,3.10
2022-12-27T07:16:49.462Z,3.20
2022-12-27T07:19:16.008Z,2.90
2022-12-27T07:21:43.149Z,3.63
2022-12-27T07:24:09.843Z,3.78
2022-12-27T07:26:36.381Z,3.55
2022-12-27T07:29:03.080Z,3.78
2022-12-27T07:31:32.673Z,3.33
2022-12-27T07:34:01.669Z,3.58
2022-12-27T07:36:32.290Z,3.00
2022-12-27T07:38:58.975Z,2.97
2022-12-27T07:41:25.662Z,2.92
2022-12-27T07:43:52.568Z,3.17
2022-12-27T07:46:22.622Z,2.90
2022-12-27T07:48:49.593Z,3.60
2022-12-27T07:51:17.487Z,3.13
2022-12-27T07:53:44.379Z,2.72
2022-12-27T07:56:13.947Z,3.05
2022-12-27T07:58:42.919Z,3.17
2022-12-27T08:01:11.024Z,3.10
2022-12-27T08:03:38.496Z,3.13
2022-12-27T08:06:06.010Z,2.83
2022-12-27T08:08:44.831Z,2.60
2022-12-27T08:11:12.616Z,3.08
2022-12-27T08:13:39.400Z,3.08
2022-12-27T08:16:06.846Z,2.85
2022-12-27T08:18:33.565Z,3.03
2022-12-27T08:21:00.097Z,2.83
2022-12-27T08:23:26.620Z,2.80
2022-12-27T08:25:53.199Z,2.63
2022-12-27T08:28:19.771Z,2.95
2022-12-27T08:30:47.298Z,2.70
2022-12-27T08:33:15.368Z,2.83
2022-12-27T08:35:54.353Z,3.22
2022-12-27T08:38:21.555Z,2.60
2022-12-27T08:40:48.142Z,2.90
2022-12-27T08:43:14.978Z,2.83
2022-12-27T08:45:42.225Z,2.90
2022-12-27T08:48:09.337Z,3.17
2022-12-27T08:50:35.968Z,3.95
2022-12-27T08:53:04.405Z,3.90
2022-12-27T08:55:31.755Z,4.25
2022-12-27T08:57:59.541Z,2.95
2022-12-27T09:00:27.147Z,2.38
2022-12-27T09:02:53.837Z,2.60
2022-12-27T09:05:22.147Z,2.60
2022-12-27T09:07:49.255Z,2.60
2022-12-27T09:10:16.274Z,2.45
2022-12-27T09:12:42.948Z,2.45
2022-12-27T09:15:10.152Z,2.38
2022-12-27T09:17:36.691Z,2.40
2022-12-27T09:20:04.247Z,2.72
2022-12-27T09:22:31.002Z,2.60
2022-12-27T09:24:57.569Z,2.60
2022-12-27T09:27:24.091Z,2.60
2022-12-27T09:29:50.652Z,2.78
2022-12-27T09:32:17.177Z,2.90
2022-12-27T09:34:43.659Z,3.20
2022-12-27T09:37:10.203Z,2.67
2022-12-27T09:39:36.756Z,2.70
2022-12-27T09:42:58.960Z,2.60
2022-12-27T09:45:35.395Z,2.60
2022-12-27T09:48:07.439Z,2.30
2022-12-27T09:50:40.097Z,2.65
2022-12-27T09:53:17.325Z,2.42
2022-12-27T09:55:48.602Z,2.72
2022-12-27T09:58:41.860Z,2.90
2022-12-27T10:01:27.113Z,3.15
2022-12-27T10:03:54.201Z,2.95
2022-12-27T10:06:38.789Z,2.80
2022-12-27T10:09:14.713Z,2.85
2022-12-27T10:12:00.587Z,3.40
2022-12-27T10:14:32.647Z,2.90
2022-12-27T10:17:24.019Z,2.95
2022-12-27T10:20:07.753Z,3.30
2022-12-27T10:22:51.405Z,2.45
2022-12-27T10:25:22.046Z,2.67
2022-12-27T10:27:53.555Z,2.83
2022-12-27T10:30:22.185Z,3.08
2022-12-27T10:32:49.811Z,2.70
2022-12-27T10:35:19.351Z,2.60
2022-12-27T10:37:47.894Z,2.55
2022-12-27T10:40:22.060Z,2.80
2022-12-27T10:43:19.539Z,2.97
2022-12-27T10:45:46.238Z,3.05
2022-12-27T10:48:23.227Z,2.67
2022-12-27T10:50:57.626Z,2.55
2022-12-27T10:53:45.200Z,2.88
2022-12-27T10:56:31.719Z,2.63
2022-12-27T10:59:12.576Z,2.50
2022-12-27T11:01:39.535Z,2.50
2022-12-27T11:04:19.814Z,2.45
2022-12-27T11:06:50.030Z,2.70
2022-12-27T11:09:24.566Z,2.65
2022-12-27T11:11:51.183Z,2.70
2022-12-27T11:14:20.593Z,2.70
2022-12-27T11:16:49.027Z,2.72
2022-12-27T11:19:27.592Z,2.50
2022-12-27T11:21:55.742Z,2.78
2022-12-27T11:24:22.922Z,2.75
2022-12-27T11:26:54.160Z,2.47
2022-12-27T11:29:24.356Z,2.40
2022-12-27T11:31:52.663Z,2.55
2022-12-27T11:34:22.959Z,2.58
2022-12-27T11:36:53.066Z,2.85
2022-12-27T11:39:41.573Z,2.47
2022-12-27T11:42:44.809Z,2.83
2022-12-27T11:45:35.189Z,2.92
2022-12-27T11:48:21.077Z,3.50
2022-12-27T11:51:10.498Z,2.70
2022-12-27T11:54:06.125Z,2.83
2022-12-27T11:56:41.733Z,2.90
2022-12-27T11:59:29.946Z,2.80
2022-12-27T12:02:26.737Z,2.67
2022-12-27T12:05:17.964Z,3.10
2022-12-27T12:08:01.450Z,3.45
2022-12-27T12:10:55.543Z,2.60
2022-12-27T12:13:43.372Z,2.50
2022-12-27T12:16:46.361Z,2.60
2022-12-27T12:19:36.344Z,2.70
2022-12-27T12:22:20.638Z,2.85
2022-12-27T12:25:28.530Z,3.10
2022-12-27T12:28:57.576Z,2.45
2022-12-27T12:31:57.238Z,2.60
2022-12-27T12:34:45.667Z,2.83
2022-12-27T12:37:38.775Z,2.97
2022-12-27T12:40:26.979Z,2.70
2022-12-27T12:43:22.570Z,3.05
2022-12-27T12:46:28.231Z,2.53
2022-12-27T12:49:28.255Z,3.55
2022-12-27T12:52:03.867Z,2.92
2022-12-27T12:54:58.251Z,2.75
2022-12-27T12:57:49.780Z,2.78
2022-12-27T13:00:28.424Z,2.50
2022-12-27T13:03:27.031Z,2.70
2022-12-27T13:06:29.988Z,2.80
2022-12-27T13:09:10.259Z,2.80
2022-12-27T13:11:58.187Z,2.70
2022-12-27T13:14:38.021Z,2.90
2022-12-27T13:17:18.816Z,3.00
2022-12-27T13:20:15.172Z,2.80
2022-12-27T13:23:07.345Z,2.80
2022-12-27T13:25:45.829Z,2.80
2022-12-27T13:28:42.644Z,2.60
2022-12-27T13:31:40.074Z,2.80
2022-12-27T13:34:43.433Z,2.55
2022-12-27T13:37:37.404Z,3.00
2022-12-27T13:40:12.646Z,3.00
2022-12-27T13:43:17.396Z,3.00
2022-12-27T13:46:19.974Z,2.97
2022-12-27T13:48:46.716Z,3.05
2022-12-27T13:51:45.080Z,2.65
2022-12-27T13:54:38.863Z,2.83
2022-12-27T13:57:30.931Z,3.10
2022-12-27T14:00:04.468Z,2.83
2022-12-27T14:02:37.302Z,3.20
2022-12-27T14:05:19.737Z,2.90
2022-12-27T14:08:10.058Z,3.10
2022-12-27T14:10:49.011Z,3.00
2022-12-27T14:13:24.427Z,3.78
2022-12-27T14:16:13.075Z,3.20
2022-12-27T14:18:51.198Z,3.08
2022-12-27T14:21:35.239Z,3.13
2022-12-27T14:24:52.844Z,3.22
2022-12-27T14:27:49.386Z,3.58
2022-12-27T14:30:23.071Z,3.15
2022-12-27T14:33:03.445Z,3.95
2022-12-27T14:35:49.789Z,6.82
2022-12-27T14:38:19.011Z,3.70
2022-12-27T14:41:10.051Z,4.00
2022-12-27T14:43:48.619Z,4.00
2022-12-27T14:46:41.716Z,4.35
2022-12-27T14:49:32.655Z,3.53
2022-12-27T14:52:12.800Z,4.60
2022-12-27T14:55:10.716Z,3.55
2022-12-27T14:57:55.564Z,3.45
2022-12-27T15:00:28.341Z,2.95
2022-12-27T15:03:34.646Z,3.20
2022-12-27T15:08:45.857Z,3.47
2022-12-27T15:11:24.253Z,3.60
2022-12-27T15:14:08.640Z,3.20
2022-12-27T15:16:56.972Z,3.60
2022-12-27T15:20:08.410Z,4.13
2022-12-27T15:22:50.174Z,3.30
2022-12-27T15:25:35.337Z,3.10
2022-12-27T15:28:29.875Z,3.25
2022-12-27T15:31:09.849Z,3.40
2022-12-27T15:34:04.824Z,2.97
2022-12-27T15:36:41.005Z,3.40
2022-12-27T15:42:09.190Z,3.10
2022-12-27T15:44:43.835Z,3.25
2022-12-27T15:47:29.714Z,3.13
2022-12-27T15:50:20.483Z,3.20
2022-12-27T15:53:02.219Z,3.30
2022-12-27T15:55:34.717Z,3.50
2022-12-27T15:58:16.485Z,3.58
2022-12-27T16:00:45.043Z,3.25
2022-12-27T16:03:37.388Z,3.20
2022-12-27T16:06:05.862Z,3.42
2022-12-27T16:08:35.252Z,3.20
2022-12-27T16:11:04.281Z,3.47
2022-12-27T16:13:42.841Z,3.47
2022-12-27T16:16:12.333Z,4.10
2022-12-27T16:19:21.522Z,6.20
2022-12-27T16:21:49.650Z,3.78
2022-12-27T16:24:20.286Z,5.50
2022-12-27T16:26:53.680Z,4.25
2022-12-27T16:29:23.442Z,6.03
2022-12-27T16:31:51.695Z,5.18
2022-12-27T16:34:24.998Z,6.32
2022-12-27T16:36:54.800Z,5.18
2022-12-27T16:39:57.309Z,4.50
2022-12-27T16:42:40.644Z,5.20
2022-12-27T16:45:39.357Z,5.72
2022-12-27T16:48:18.923Z,6.32
2022-12-27T16:51:12.998Z,5.32
2022-12-27T16:54:29.109Z,4.32
2022-12-27T16:57:29.290Z,5.13
2022-12-27T17:00:01.353Z,4.65
2022-12-27T17:02:44.932Z,5.30
2022-12-27T17:05:14.417Z,3.90
2022-12-27T17:07:50.385Z,4.30
2022-12-27T17:10:30.245Z,4.40
2022-12-27T17:13:09.964Z,4.22
2022-12-27T17:16:04.483Z,3.67
2022-12-27T17:18:53.605Z,4.00
2022-12-27T17:21:30.211Z,3.70
2022-12-27T17:24:00.463Z,4.20
2022-12-27T17:26:48.772Z,3.78
2022-12-27T17:29:43.534Z,4.03
2022-12-27T17:32:29.500Z,3.90
2022-12-27T17:35:22.098Z,4.53
2022-12-27T17:38:09.266Z,4.65
2022-12-27T17:41:15.141Z,5.22
2022-12-27T17:44:19.107Z,4.38
2022-12-27T17:46:55.374Z,4.70
2022-12-27T17:49:30.719Z,4.70
2022-12-27T17:52:22.524Z,4.80
2022-12-27T17:55:21.109Z,4.78
2022-12-27T17:57:55.079Z,4.75
2022-12-27T18:00:24.559Z,5.20
2022-12-27T18:02:53.425Z,5.35
2022-12-27T18:05:27.229Z,5.07
2022-12-27T18:08:03.521Z,4.93
2022-12-27T18:10:31.791Z,4.88
2022-12-27T18:13:01.641Z,5.45
2022-12-27T18:15:32.407Z,4.90
2022-12-27T18:18:02.673Z,4.68
2022-12-27T18:20:31.137Z,4.88
2022-12-27T18:23:00.665Z,4.38
2022-12-27T18:25:34.360Z,5.00
2022-12-27T18:28:20.595Z,5.10
2022-12-27T18:30:47.055Z,4.60
2022-12-27T18:33:16.161Z,5.38
2022-12-27T18:35:48.308Z,4.53
2022-12-27T18:38:33.201Z,5.18
2022-12-27T18:41:06.376Z,4.82
2022-12-27T18:43:34.777Z,5.40
2022-12-27T18:46:03.649Z,5.47
2022-12-27T18:48:35.181Z,4.85
2022-12-27T18:51:03.014Z,4.95
2022-12-27T18:53:38.421Z,4.90
2022-12-27T18:56:07.540Z,4.90
2022-12-27T18:58:34.965Z,6.13
2022-12-27T19:01:24.639Z,5.15
2022-12-27T19:04:19.343Z,5.57
2022-12-27T19:07:09.182Z,5.40
2022-12-27T19:09:56.863Z,5.82
2022-12-27T19:12:34.748Z,5.57
2022-12-27T19:15:02.784Z,6.38
2022-12-27T19:17:31.855Z,6.88
2022-12-27T19:20:02.876Z,6.10
2022-12-27T19:22:52.293Z,6.38
2022-12-27T19:25:28.020Z,5.40
2022-12-27T19:27:59.667Z,6.28
2022-12-27T19:31:05.202Z,6.07
2022-12-27T19:33:34.656Z,5.57
2022-12-27T19:36:03.751Z,5.97
2022-12-27T19:38:32.850Z,5.70
2022-12-27T19:41:03.945Z,5.00
2022-12-27T19:43:37.458Z,4.90
2022-12-27T19:46:04.222Z,5.40
2022-12-27T19:48:30.745Z,5.20
2022-12-27T19:50:58.217Z,5.20
2022-12-27T19:53:32.354Z,5.45
2022-12-27T19:56:01.951Z,5.72
2022-12-27T19:58:30.716Z,5.40
2022-12-27T20:00:58.369Z,5.63
2022-12-27T20:03:25.360Z,5.75
2022-12-27T20:06:13.525Z,5.05
2022-12-27T20:08:46.271Z,4.95
2022-12-27T20:11:18.761Z,5.35
2022-12-27T20:13:45.695Z,7.88
2022-12-27T20:16:14.294Z,7.57
2022-12-27T20:18:41.926Z,6.93
2022-12-27T20:21:14.434Z,6.93
2022-12-27T20:23:41.332Z,7.20
2022-12-27T20:26:08.805Z,7.03
2022-12-27T20:28:35.482Z,8.27
2022-12-27T20:31:09.565Z,8.13
2022-12-27T20:33:36.570Z,7.50
2022-12-27T20:36:03.956Z,7.85
2022-12-27T20:38:30.727Z,7.70
2022-12-27T20:40:57.330Z,7.53
2022-12-27T20:43:23.900Z,6.80
2022-12-27T20:45:50.410Z,7.78
2022-12-27T20:48:17.090Z,7.25
2022-12-27T20:50:43.707Z,6.78
2022-12-27T20:53:10.220Z,7.38
2022-12-27T20:55:36.804Z,7.22
2022-12-27T20:58:05.678Z,7.22
2022-12-27T21:00:32.712Z,6.90
2022-12-27T21:03:00.521Z,6.22
2022-12-27T21:05:27.796Z,6.88
2022-12-27T21:07:54.331Z,7.22
2022-12-27T21:10:20.865Z,6.28
2022-12-27T21:12:47.447Z,6.55
2022-12-27T21:15:14.039Z,6.55
2022-12-27T21:17:40.596Z,7.70
2022-12-27T21:20:11.052Z,7.63
2022-12-27T21:22:38.655Z,7.97
2022-12-27T21:25:05.728Z,9.23
2022-12-27T21:27:32.283Z,8.30
2022-12-27T21:30:00.014Z,8.85
2022-12-27T21:32:28.814Z,8.40
2022-12-27T21:34:55.390Z,8.15
2022-12-27T21:37:22.042Z,7.60
2022-12-27T21:39:48.640Z,7.85
2022-12-27T21:42:16.676Z,8.18
2022-12-27T21:44:43.158Z,7.85
2022-12-27T21:47:09.643Z,8.63
2022-12-27T21:49:40.412Z,8.02
2022-12-27T21:52:10.024Z,8.80
2022-12-27T21:54:36.622Z,8.68
2022-12-27T21:57:03.597Z,8.43
2022-12-27T21:59:30.148Z,8.93
2022-12-27T22:01:56.784Z,8.98
2022-12-27T22:04:23.487Z,8.32
2022-12-27T22:06:50.394Z,8.27
2022-12-27T22:09:17.074Z,7.97
2022-12-27T22:11:43.914Z,8.02
2022-12-27T22:14:10.602Z,8.20
2022-12-27T22:16:39.328Z,7.38
2022-12-27T22:19:08.202Z,8.63
2022-12-27T22:21:35.605Z,8.25
2022-12-27T22:24:02.941Z,9.93
2022-12-27T22:26:32.862Z,8.05
2022-12-27T22:28:59.408Z,8.00
2022-12-27T22:31:30.330Z,8.50
2022-12-27T22:33:57.035Z,8.27
2022-12-27T22:36:26.790Z,7.63
2022-12-27T22:38:56.029Z,7.70
2022-12-27T22:41:27.305Z,7.43
2022-12-27T22:43:59.447Z,7.82
2022-12-27T22:46:27.039Z,7.10
2022-12-27T22:48:56.368Z,7.97
2022-12-27T22:51:28.891Z,6.65
2022-12-27T22:53:56.837Z,7.57
2022-12-27T22:56:26.446Z,6.80
2022-12-27T22:58:53.005Z,7.20
2022-12-27T23:01:28.170Z,7.28
2022-12-27T23:03:56.311Z,7.00
2022-12-27T23:06:23.387Z,6.35
2022-12-27T23:08:50.539Z,6.43
2022-12-27T23:11:19.032Z,5.97
2022-12-27T23:13:46.340Z,6.05
2022-12-27T23:16:12.952Z,5.63
2022-12-27T23:18:42.176Z,5.93
2022-12-27T23:21:21.595Z,5.68
2022-12-27T23:23:50.767Z,6.15
2022-12-27T23:26:20.143Z,6.05
2022-12-27T23:28:47.998Z,5.13
2022-12-27T23:31:15.242Z,5.43
2022-12-27T23:33:43.228Z,5.20
2022-12-27T23:36:11.057Z,5.03
2022-12-27T23:38:37.834Z,4.90
2022-12-27T23:41:06.315Z,4.43
2022-12-27T23:43:52.251Z,4.80
2022-12-27T23:46:29.808Z,5.60
2022-12-27T23:48:58.880Z,5.25
2022-12-27T23:51:26.378Z,5.30
2022-12-27T23:53:52.941Z,4.65
2022-12-27T23:56:24.467Z,4.55
2022-12-27T23:58:53.075Z,4.82
